sensor_id;sensor_type;location;lat;lon;timestamp;pressure;altitude;pressure_sealevel;temperature;humidity
65534;BME280;53640;55.838;37.184;2023-02-19T00:01:44;97499.34;;;-8.21;55.08
65534;BME280;53640;55.838;37.184;2023-02-19T00:04:16;97523.03;;;-8.03;55.28
65534;BME280;53640;55.838;37.184;2023-02-19T00:06:44;97489.81;;;-8.22;55.17
65534;BME280;53640;55.838;37.184;2023-02-19T00:09:12;97479.06;;;-8.29;54.69
65534;BME280;53640;55.838;37.184;2023-02-19T00:11:39;97420.06;;;-8.80;55.78
65534;BME280;53640;55.838;37.184;2023-02-19T00:14:06;97460.53;;;-8.55;55.58
65534;BME280;53640;55.838;37.184;2023-02-19T00:16:36;97442.66;;;-8.69;55.42
65534;BME280;53640;55.838;37.184;2023-02-19T00:19:09;97472.84;;;-8.55;55.57
65534;BME280;53640;55.838;37.184;2023-02-19T00:21:37;97434.91;;;-8.61;54.57
65534;BME280;53640;55.838;37.184;2023-02-19T00:24:04;97555.59;;;-7.96;55.38
65534;BME280;53640;55.838;37.184;2023-02-19T00:26:32;97466.19;;;-8.50;55.50
65534;BME280;53640;55.838;37.184;2023-02-19T00:28:59;97514.78;;;-8.08;54.97
65534;BME280;53640;55.838;37.184;2023-02-19T00:31:28;97538.91;;;-8.05;55.23
65534;BME280;53640;55.838;37.184;2023-02-19T00:33:58;97512.56;;;-8.13;55.38
65534;BME280;53640;55.838;37.184;2023-02-19T00:36:26;97433.38;;;-8.63;55.52
65534;BME280;53640;55.838;37.184;2023-02-19T00:38:53;97395.41;;;-8.87;55.24
65534;BME280;53640;55.838;37.184;2023-02-19T00:41:23;97438.09;;;-8.67;55.30
65534;BME280;53640;55.838;37.184;2023-02-19T00:43:59;97376.09;;;-8.96;55.43
65534;BME280;53640;55.838;37.184;2023-02-19T00:46:33;97436.03;;;-8.73;55.90
65534;BME280;53640;55.838;37.184;2023-02-19T00:49:00;97461.47;;;-8.46;55.46
65534;BME280;53640;55.838;37.184;2023-02-19T00:51:31;97494.34;;;-8.52;56.85
65534;BME280;53640;55.838;37.184;2023-02-19T00:53:59;97443.91;;;-8.73;56.47
65534;BME280;53640;55.838;37.184;2023-02-19T00:56:26;97515.47;;;-8.16;55.67
65534;BME280;53640;55.838;37.184;2023-02-19T00:58:54;97353.56;;;-9.26;56.61
65534;BME280;53640;55.838;37.184;2023-02-19T01:01:25;97439.06;;;-8.68;55.89
65534;BME280;53640;55.838;37.184;2023-02-19T01:03:52;97441.50;;;-8.57;56.56
65534;BME280;53640;55.838;37.184;2023-02-19T01:06:19;97517.81;;;-8.13;55.83
65534;BME280;53640;55.838;37.184;2023-02-19T01:08:46;97383.28;;;-8.98;56.25
65534;BME280;53640;55.838;37.184;2023-02-19T01:11:14;97363.59;;;-9.02;56.42
65534;BME280;53640;55.838;37.184;2023-02-19T01:13:43;97456.00;;;-8.53;56.04
65534;BME280;53640;55.838;37.184;2023-02-19T01:16:17;97488.19;;;-8.23;56.14
65534;BME280;53640;55.838;37.184;2023-02-19T01:18:47;97387.56;;;-8.97;57.20
65534;BME280;53640;55.838;37.184;2023-02-19T01:21:20;97490.66;;;-8.22;56.23
65534;BME280;53640;55.838;37.184;2023-02-19T01:23:52;97326.44;;;-9.25;56.63
65534;BME280;53640;55.838;37.184;2023-02-19T01:26:21;97382.28;;;-8.87;55.69
65534;BME280;53640;55.838;37.184;2023-02-19T01:28:48;97425.81;;;-8.67;56.53
65534;BME280;53640;55.838;37.184;2023-02-19T01:31:18;97333.31;;;-9.24;56.52
65534;BME280;53640;55.838;37.184;2023-02-19T01:33:48;97364.63;;;-9.32;58.48
65534;BME280;53640;55.838;37.184;2023-02-19T01:36:15;97435.97;;;-8.91;57.96
65534;BME280;53640;55.838;37.184;2023-02-19T01:38:42;97461.38;;;-8.54;57.75
65534;BME280;53640;55.838;37.184;2023-02-19T01:41:15;97441.44;;;-8.75;57.65
65534;BME280;53640;55.838;37.184;2023-02-19T01:46:40;97333.75;;;-9.28;57.43
65534;BME280;53640;55.838;37.184;2023-02-19T01:49:24;97434.66;;;-8.77;57.80
65534;BME280;53640;55.838;37.184;2023-02-19T01:52:03;97488.94;;;-8.40;57.80
65534;BME280;53640;55.838;37.184;2023-02-19T01:54:35;97414.53;;;-8.77;57.24
65534;BME280;53640;55.838;37.184;2023-02-19T01:57:06;97430.34;;;-8.69;56.73
65534;BME280;53640;55.838;37.184;2023-02-19T01:59:35;97330.16;;;-9.37;57.21
65534;BME280;53640;55.838;37.184;2023-02-19T02:02:03;97345.06;;;-9.37;57.10
65534;BME280;53640;55.838;37.184;2023-02-19T02:04:31;97384.47;;;-9.20;58.03
65534;BME280;53640;55.838;37.184;2023-02-19T02:07:02;97395.25;;;-8.95;57.39
65534;BME280;53640;55.838;37.184;2023-02-19T02:09:50;97384.97;;;-9.06;57.14
65534;BME280;53640;55.838;37.184;2023-02-19T02:12:36;97361.91;;;-9.03;56.79
65534;BME280;53640;55.838;37.184;2023-02-19T02:15:04;97374.19;;;-9.03;56.80
65534;BME280;53640;55.838;37.184;2023-02-19T02:17:52;97494.63;;;-8.45;57.23
65534;BME280;53640;55.838;37.184;2023-02-19T02:23:34;97467.97;;;-8.50;57.28
65534;BME280;53640;55.838;37.184;2023-02-19T02:26:29;97337.03;;;-9.26;56.98
65534;BME280;53640;55.838;37.184;2023-02-19T02:32:03;97394.06;;;-9.01;56.98
65534;BME280;53640;55.838;37.184;2023-02-19T02:34:40;97457.06;;;-8.46;56.75
65534;BME280;53640;55.838;37.184;2023-02-19T02:37:10;97386.84;;;-8.99;56.84
65534;BME280;53640;55.838;37.184;2023-02-19T02:39:38;97369.94;;;-9.04;56.99
65534;BME280;53640;55.838;37.184;2023-02-19T02:42:06;97384.66;;;-8.94;56.96
65534;BME280;53640;55.838;37.184;2023-02-19T02:45:31;97354.38;;;-9.06;56.84
65534;BME280;53640;55.838;37.184;2023-02-19T02:50:59;97292.41;;;-9.44;56.86
65534;BME280;53640;55.838;37.184;2023-02-19T02:56:30;97310.91;;;-9.46;57.30
65534;BME280;53640;55.838;37.184;2023-02-19T02:59:11;97293.56;;;-9.56;57.84
65534;BME280;53640;55.838;37.184;2023-02-19T03:02:06;97343.25;;;-9.27;57.32
65534;BME280;53640;55.838;37.184;2023-02-19T03:04:51;97305.25;;;-9.41;57.45
65534;BME280;53640;55.838;37.184;2023-02-19T03:08:01;97457.09;;;-8.55;57.60
65534;BME280;53640;55.838;37.184;2023-02-19T03:13:09;97394.56;;;-8.87;58.28
65534;BME280;53640;55.838;37.184;2023-02-19T03:16:21;97444.69;;;-8.63;58.34
65534;BME280;53640;55.838;37.184;2023-02-19T03:19:13;97419.59;;;-8.66;58.11
65534;BME280;53640;55.838;37.184;2023-02-19T03:21:55;97432.06;;;-8.77;60.01
65534;BME280;53640;55.838;37.184;2023-02-19T03:24:30;97429.13;;;-8.64;58.33
65534;BME280;53640;55.838;37.184;2023-02-19T03:27:19;97417.13;;;-8.77;58.79
65534;BME280;53640;55.838;37.184;2023-02-19T03:29:52;97435.31;;;-8.66;59.30
65534;BME280;53640;55.838;37.184;2023-02-19T03:32:27;97371.19;;;-9.18;59.90
65534;BME280;53640;55.838;37.184;2023-02-19T03:35:24;97438.91;;;-8.67;60.00
65534;BME280;53640;55.838;37.184;2023-02-19T03:40:29;97428.72;;;-8.70;59.62
65534;BME280;53640;55.838;37.184;2023-02-19T03:43:04;97427.88;;;-8.70;59.84
65534;BME280;53640;55.838;37.184;2023-02-19T03:48:34;97371.44;;;-9.02;59.97
65534;BME280;53640;55.838;37.184;2023-02-19T03:53:59;97423.63;;;-8.71;60.17
65534;BME280;53640;55.838;37.184;2023-02-19T03:56:52;97409.69;;;-8.72;59.80
65534;BME280;53640;55.838;37.184;2023-02-19T03:59:38;97420.72;;;-8.68;60.39
65534;BME280;53640;55.838;37.184;2023-02-19T04:02:14;97404.00;;;-8.67;60.13
65534;BME280;53640;55.838;37.184;2023-02-19T04:04:53;97309.31;;;-9.29;60.22
65534;BME280;53640;55.838;37.184;2023-02-19T04:07:26;97399.44;;;-8.65;60.53
65534;BME280;53640;55.838;37.184;2023-02-19T04:09:54;97382.34;;;-8.69;60.46
65534;BME280;53640;55.838;37.184;2023-02-19T04:12:23;97360.06;;;-8.83;60.23
65534;BME280;53640;55.838;37.184;2023-02-19T04:17:21;97391.97;;;-8.60;60.16
65534;BME280;53640;55.838;37.184;2023-02-19T04:19:50;97358.09;;;-8.81;59.96
65534;BME280;53640;55.838;37.184;2023-02-19T04:22:18;97400.66;;;-8.59;60.39
65534;BME280;53640;55.838;37.184;2023-02-19T04:24:48;97382.59;;;-8.62;59.65
65534;BME280;53640;55.838;37.184;2023-02-19T04:27:15;97395.13;;;-8.56;60.24
65534;BME280;53640;55.838;37.184;2023-02-19T04:29:42;97396.63;;;-8.54;59.58
65534;BME280;53640;55.838;37.184;2023-02-19T04:32:12;97400.63;;;-8.50;60.08
65534;BME280;53640;55.838;37.184;2023-02-19T04:34:39;97401.47;;;-8.59;60.43
65534;BME280;53640;55.838;37.184;2023-02-19T04:37:05;97360.28;;;-8.76;60.15
65534;BME280;53640;55.838;37.184;2023-02-19T04:39:32;97369.56;;;-8.82;60.78
65534;BME280;53640;55.838;37.184;2023-02-19T04:41:59;97377.00;;;-8.77;60.60
65534;BME280;53640;55.838;37.184;2023-02-19T04:44:25;97396.31;;;-8.51;60.32
65534;BME280;53640;55.838;37.184;2023-02-19T04:46:52;97401.19;;;-8.56;60.32
65534;BME280;53640;55.838;37.184;2023-02-19T04:49:18;97358.09;;;-8.81;60.64
65534;BME280;53640;55.838;37.184;2023-02-19T04:51:44;97364.72;;;-8.77;60.52
65534;BME280;53640;55.838;37.184;2023-02-19T04:54:11;97389.06;;;-8.57;60.56
65534;BME280;53640;55.838;37.184;2023-02-19T04:56:38;97360.25;;;-8.67;59.60
65534;BME280;53640;55.838;37.184;2023-02-19T04:59:05;97377.88;;;-8.59;60.31
65534;BME280;53640;55.838;37.184;2023-02-19T05:01:32;97383.56;;;-8.63;60.08
65534;BME280;53640;55.838;37.184;2023-02-19T05:03:58;97387.91;;;-8.72;60.63
65534;BME280;53640;55.838;37.184;2023-02-19T05:06:25;97373.53;;;-8.68;60.49
65534;BME280;53640;55.838;37.184;2023-02-19T05:08:52;97369.41;;;-8.80;60.29
65534;BME280;53640;55.838;37.184;2023-02-19T05:11:18;97383.69;;;-8.65;60.55
65534;BME280;53640;55.838;37.184;2023-02-19T05:13:45;97354.31;;;-8.69;60.54
65534;BME280;53640;55.838;37.184;2023-02-19T05:16:13;97384.94;;;-8.69;60.55
65534;BME280;53640;55.838;37.184;2023-02-19T05:18:43;97367.84;;;-8.63;60.19
65534;BME280;53640;55.838;37.184;2023-02-19T05:21:11;97362.06;;;-8.67;60.75
65534;BME280;53640;55.838;37.184;2023-02-19T05:23:38;97346.22;;;-8.75;60.59
65534;BME280;53640;55.838;37.184;2023-02-19T05:26:13;97332.88;;;-8.82;60.47
65534;BME280;53640;55.838;37.184;2023-02-19T05:28:44;97353.63;;;-8.61;60.78
65534;BME280;53640;55.838;37.184;2023-02-19T05:31:11;97366.31;;;-8.66;60.55
65534;BME280;53640;55.838;37.184;2023-02-19T05:33:38;97363.13;;;-8.60;60.49
65534;BME280;53640;55.838;37.184;2023-02-19T05:36:07;97369.56;;;-8.54;60.64
65534;BME280;53640;55.838;37.184;2023-02-19T05:38:35;97359.75;;;-8.52;60.48
65534;BME280;53640;55.838;37.184;2023-02-19T05:41:17;97344.59;;;-8.58;60.72
65534;BME280;53640;55.838;37.184;2023-02-19T05:43:45;97348.66;;;-8.64;60.80
65534;BME280;53640;55.838;37.184;2023-02-19T05:46:15;97328.00;;;-8.77;60.78
65534;BME280;53640;55.838;37.184;2023-02-19T05:48:42;97268.06;;;-9.17;60.24
65534;BME280;53640;55.838;37.184;2023-02-19T05:51:11;97335.03;;;-8.77;60.71
65534;BME280;53640;55.838;37.184;2023-02-19T05:53:39;97358.00;;;-8.61;60.89
65534;BME280;53640;55.838;37.184;2023-02-19T05:56:37;97351.81;;;-8.60;60.36
65534;BME280;53640;55.838;37.184;2023-02-19T05:59:15;97343.41;;;-8.64;60.86
65534;BME280;53640;55.838;37.184;2023-02-19T06:01:42;97344.50;;;-8.67;60.64
65534;BME280;53640;55.838;37.184;2023-02-19T06:04:10;97363.91;;;-8.50;60.88
65534;BME280;53640;55.838;37.184;2023-02-19T06:06:38;97368.47;;;-8.52;60.34
65534;BME280;53640;55.838;37.184;2023-02-19T06:09:05;97305.41;;;-8.87;60.80
65534;BME280;53640;55.838;37.184;2023-02-19T06:11:35;97352.19;;;-8.55;60.71
65534;BME280;53640;55.838;37.184;2023-02-19T06:14:01;97364.38;;;-8.64;60.90
65534;BME280;53640;55.838;37.184;2023-02-19T06:16:28;97334.81;;;-8.56;60.83
65534;BME280;53640;55.838;37.184;2023-02-19T06:18:54;97361.56;;;-8.53;61.14
65534;BME280;53640;55.838;37.184;2023-02-19T06:21:21;97346.66;;;-8.52;60.64
65534;BME280;53640;55.838;37.184;2023-02-19T06:23:47;97337.03;;;-8.61;60.50
65534;BME280;53640;55.838;37.184;2023-02-19T06:26:22;97345.88;;;-8.62;60.79
65534;BME280;53640;55.838;37.184;2023-02-19T06:28:50;97346.66;;;-8.52;60.29
65534;BME280;53640;55.838;37.184;2023-02-19T06:31:18;97335.75;;;-8.57;60.94
65534;BME280;53640;55.838;37.184;2023-02-19T06:33:46;97323.91;;;-8.61;60.58
65534;BME280;53640;55.838;37.184;2023-02-19T06:36:17;97337.97;;;-8.53;61.16
65534;BME280;53640;55.838;37.184;2023-02-19T06:38:44;97322.13;;;-8.61;59.95
65534;BME280;53640;55.838;37.184;2023-02-19T06:41:11;97299.84;;;-8.75;60.64
65534;BME280;53640;55.838;37.184;2023-02-19T06:43:38;97332.44;;;-8.50;60.31
65534;BME280;53640;55.838;37.184;2023-02-19T06:46:06;97330.84;;;-8.43;60.52
65534;BME280;53640;55.838;37.184;2023-02-19T06:48:33;97334.16;;;-8.40;60.78
65534;BME280;53640;55.838;37.184;2023-02-19T06:50:59;97281.22;;;-8.72;60.42
65534;BME280;53640;55.838;37.184;2023-02-19T06:53:26;97340.47;;;-8.33;60.20
65534;BME280;53640;55.838;37.184;2023-02-19T06:56:01;97279.13;;;-8.68;60.41
65534;BME280;53640;55.838;37.184;2023-02-19T06:58:28;97317.09;;;-8.54;60.48
65534;BME280;53640;55.838;37.184;2023-02-19T07:00:55;97271.91;;;-8.66;60.72
65534;BME280;53640;55.838;37.184;2023-02-19T07:03:21;97312.94;;;-8.47;60.54
65534;BME280;53640;55.838;37.184;2023-02-19T07:05:48;97319.31;;;-8.50;59.96
65534;BME280;53640;55.838;37.184;2023-02-19T07:08:15;97307.91;;;-8.40;59.82
65534;BME280;53640;55.838;37.184;2023-02-19T07:10:56;97307.84;;;-8.49;60.33
65534;BME280;53640;55.838;37.184;2023-02-19T07:13:31;97294.19;;;-8.52;60.51
65534;BME280;53640;55.838;37.184;2023-02-19T07:16:00;97295.31;;;-8.55;61.18
65534;BME280;53640;55.838;37.184;2023-02-19T07:18:29;97286.31;;;-8.52;60.96
65534;BME280;53640;55.838;37.184;2023-02-19T07:21:09;97270.56;;;-8.70;59.75
65534;BME280;53640;55.838;37.184;2023-02-19T07:23:37;97307.69;;;-8.47;60.70
65534;BME280;53640;55.838;37.184;2023-02-19T07:26:10;97296.38;;;-8.48;61.28
65534;BME280;53640;55.838;37.184;2023-02-19T07:28:47;97277.63;;;-8.53;60.83
65534;BME280;53640;55.838;37.184;2023-02-19T07:31:15;97255.06;;;-8.63;60.75
65534;BME280;53640;55.838;37.184;2023-02-19T07:41:06;97298.78;;;-8.36;61.49
65534;BME280;53640;55.838;37.184;2023-02-19T07:44:24;97289.63;;;-8.32;61.44
65534;BME280;53640;55.838;37.184;2023-02-19T07:47:16;97122.69;;;-9.31;61.38
65534;BME280;53640;55.838;37.184;2023-02-19T07:54:42;97204.13;;;-8.79;61.46
65534;BME280;53640;55.838;37.184;2023-02-19T07:57:09;97267.53;;;-8.30;61.47
65534;BME280;53640;55.838;37.184;2023-02-19T07:59:36;97201.34;;;-8.77;60.55
65534;BME280;53640;55.838;37.184;2023-02-19T08:02:03;97154.91;;;-8.85;60.92
65534;BME280;53640;55.838;37.184;2023-02-19T08:04:48;97283.16;;;-8.02;61.24
65534;BME280;53640;55.838;37.184;2023-02-19T08:07:15;97264.91;;;-8.12;61.29
65534;BME280;53640;55.838;37.184;2023-02-19T08:09:41;97220.66;;;-8.25;61.27
65534;BME280;53640;55.838;37.184;2023-02-19T08:12:10;97255.78;;;-8.00;60.73
65534;BME280;53640;55.838;37.184;2023-02-19T08:14:55;97234.34;;;-8.13;59.58
65534;BME280;53640;55.838;37.184;2023-02-19T08:17:22;97239.19;;;-8.26;61.06
65534;BME280;53640;55.838;37.184;2023-02-19T08:19:48;97230.25;;;-8.15;61.21
65534;BME280;53640;55.838;37.184;2023-02-19T08:22:14;97265.75;;;-7.85;60.82
65534;BME280;53640;55.838;37.184;2023-02-19T08:24:41;97247.91;;;-8.00;60.82
65534;BME280;53640;55.838;37.184;2023-02-19T08:27:08;97248.97;;;-7.93;60.23
65534;BME280;53640;55.838;37.184;2023-02-19T08:29:35;97242.03;;;-7.94;61.14
65534;BME280;53640;55.838;37.184;2023-02-19T08:32:03;97260.09;;;-7.73;60.02
65534;BME280;53640;55.838;37.184;2023-02-19T08:34:30;97241.59;;;-7.89;60.11
65534;BME280;53640;55.838;37.184;2023-02-19T08:36:57;97275.03;;;-7.73;59.94
65534;BME280;53640;55.838;37.184;2023-02-19T08:39:23;97226.28;;;-7.94;60.46
65534;BME280;53640;55.838;37.184;2023-02-19T08:41:50;97271.31;;;-7.62;60.54
65534;BME280;53640;55.838;37.184;2023-02-19T08:44:17;97240.28;;;-7.67;60.65
65534;BME280;53640;55.838;37.184;2023-02-19T08:46:44;97251.78;;;-7.60;59.51
65534;BME280;53640;55.838;37.184;2023-02-19T08:49:12;97248.75;;;-7.73;60.42
65534;BME280;53640;55.838;37.184;2023-02-19T08:51:38;97250.81;;;-7.59;60.35
65534;BME280;53640;55.838;37.184;2023-02-19T08:54:05;97230.91;;;-7.70;60.37
65534;BME280;53640;55.838;37.184;2023-02-19T08:56:32;97231.25;;;-7.64;60.33
65534;BME280;53640;55.838;37.184;2023-02-19T08:58:59;97206.75;;;-7.73;59.30
65534;BME280;53640;55.838;37.184;2023-02-19T09:01:25;97207.06;;;-7.76;58.12
65534;BME280;53640;55.838;37.184;2023-02-19T09:03:52;97250.66;;;-7.57;59.40
65534;BME280;53640;55.838;37.184;2023-02-19T09:06:19;97232.50;;;-7.77;58.58
65534;BME280;53640;55.838;37.184;2023-02-19T09:08:46;97241.13;;;-7.58;58.38
65534;BME280;53640;55.838;37.184;2023-02-19T09:11:13;97237.72;;;-7.51;59.05
65534;BME280;53640;55.838;37.184;2023-02-19T09:13:40;97189.34;;;-7.74;59.04
65534;BME280;53640;55.838;37.184;2023-02-19T09:16:07;97211.47;;;-7.51;58.97
65534;BME280;53640;55.838;37.184;2023-02-19T09:18:36;97226.75;;;-7.46;59.03
65534;BME280;53640;55.838;37.184;2023-02-19T09:21:08;97215.41;;;-7.47;59.28
65534;BME280;53640;55.838;37.184;2023-02-19T09:23:36;97184.78;;;-7.64;58.75
65534;BME280;53640;55.838;37.184;2023-02-19T09:26:05;97113.88;;;-7.98;59.40
65534;BME280;53640;55.838;37.184;2023-02-19T09:28:35;97136.41;;;-7.87;57.99
65534;BME280;53640;55.838;37.184;2023-02-19T09:31:06;97066.78;;;-8.34;58.76
65534;BME280;53640;55.838;37.184;2023-02-19T09:33:35;97223.38;;;-7.30;58.44
65534;BME280;53640;55.838;37.184;2023-02-19T09:36:08;97112.25;;;-7.99;58.44
65534;BME280;53640;55.838;37.184;2023-02-19T09:38:36;97103.44;;;-8.16;59.38
65534;BME280;53640;55.838;37.184;2023-02-19T09:43:42;97185.19;;;-7.51;58.96
65534;BME280;53640;55.838;37.184;2023-02-19T09:46:30;97170.34;;;-7.60;59.59
65534;BME280;53640;55.838;37.184;2023-02-19T09:49:03;97199.56;;;-7.37;59.03
65534;BME280;53640;55.838;37.184;2023-02-19T09:51:33;97215.69;;;-7.24;59.88
65534;BME280;53640;55.838;37.184;2023-02-19T09:54:03;97212.06;;;-7.23;59.05
65534;BME280;53640;55.838;37.184;2023-02-19T09:56:31;97198.31;;;-7.16;58.68
65534;BME280;53640;55.838;37.184;2023-02-19T09:58:58;97194.19;;;-7.19;58.97
65534;BME280;53640;55.838;37.184;2023-02-19T10:01:29;97178.53;;;-7.37;59.34
65534;BME280;53640;55.838;37.184;2023-02-19T10:03:58;97191.22;;;-7.24;57.80
65534;BME280;53640;55.838;37.184;2023-02-19T10:06:27;97194.34;;;-7.21;58.18
65534;BME280;53640;55.838;37.184;2023-02-19T10:11:39;97155.84;;;-7.30;58.31
65534;BME280;53640;55.838;37.184;2023-02-19T10:14:11;97170.88;;;-7.14;58.43
65534;BME280;53640;55.838;37.184;2023-02-19T10:16:42;97193.09;;;-6.92;59.12
65534;BME280;53640;55.838;37.184;2023-02-19T10:19:12;97143.41;;;-7.20;59.57
65534;BME280;53640;55.838;37.184;2023-02-19T10:22:32;97204.47;;;-6.83;57.61
65534;BME280;53640;55.838;37.184;2023-02-19T10:25:23;97072.31;;;-7.69;58.04
65534;BME280;53640;55.838;37.184;2023-02-19T10:27:50;97106.72;;;-7.46;58.55
65534;BME280;53640;55.838;37.184;2023-02-19T10:30:20;97146.56;;;-7.16;58.76
65534;BME280;53640;55.838;37.184;2023-02-19T10:36:04;97149.69;;;-7.04;58.11
65534;BME280;53640;55.838;37.184;2023-02-19T10:38:34;97153.09;;;-7.20;57.91
65534;BME280;53640;55.838;37.184;2023-02-19T10:41:06;97169.09;;;-6.97;58.19
65534;BME280;53640;55.838;37.184;2023-02-19T10:43:36;97181.44;;;-6.89;59.29
65534;BME280;53640;55.838;37.184;2023-02-19T10:46:40;97171.63;;;-6.79;60.02
65534;BME280;53640;55.838;37.184;2023-02-19T10:49:04;97152.03;;;-6.85;59.60
65534;BME280;53640;55.838;37.184;2023-02-19T10:51:38;97128.84;;;-6.81;59.71
65534;BME280;53640;55.838;37.184;2023-02-19T10:54:27;97171.97;;;-6.33;59.75
65534;BME280;53640;55.838;37.184;2023-02-19T11:02:27;97138.25;;;-6.38;58.02
65534;BME280;53640;55.838;37.184;2023-02-19T11:05:16;97168.81;;;-6.04;59.54
65534;BME280;53640;55.838;37.184;2023-02-19T11:07:53;97148.91;;;-6.07;59.73
65534;BME280;53640;55.838;37.184;2023-02-19T11:10:30;97173.91;;;-5.94;58.59
65534;BME280;53640;55.838;37.184;2023-02-19T11:13:01;97111.59;;;-6.35;58.37
65534;BME280;53640;55.838;37.184;2023-02-19T11:15:35;97120.81;;;-6.23;58.19
65534;BME280;53640;55.838;37.184;2023-02-19T11:21:05;97038.78;;;-6.67;58.40
65534;BME280;53640;55.838;37.184;2023-02-19T11:23:36;97168.94;;;-5.81;58.11
65534;BME280;53640;55.838;37.184;2023-02-19T11:26:18;97011.50;;;-6.82;56.55
65534;BME280;53640;55.838;37.184;2023-02-19T11:29:19;97072.97;;;-6.42;56.71
65534;BME280;53640;55.838;37.184;2023-02-19T11:31:55;97101.22;;;-6.28;55.66
65534;BME280;53640;55.838;37.184;2023-02-19T11:34:25;97117.19;;;-6.30;56.34
65534;BME280;53640;55.838;37.184;2023-02-19T11:37:17;97160.75;;;-6.03;56.73
65534;BME280;53640;55.838;37.184;2023-02-19T11:39:48;97077.09;;;-6.64;54.86
65534;BME280;53640;55.838;37.184;2023-02-19T11:45:40;97157.84;;;-6.24;56.97
65534;BME280;53640;55.838;37.184;2023-02-19T11:48:22;97090.91;;;-6.71;56.74
65534;BME280;53640;55.838;37.184;2023-02-19T11:53:59;97125.94;;;-6.54;58.14
65534;BME280;53640;55.838;37.184;2023-02-19T11:56:35;97139.91;;;-6.45;58.25
65534;BME280;53640;55.838;37.184;2023-02-19T11:59:45;97158.47;;;-6.30;58.06
65534;BME280;53640;55.838;37.184;2023-02-19T12:05:18;97151.72;;;-6.33;56.04
65534;BME280;53640;55.838;37.184;2023-02-19T12:16:53;97138.25;;;-6.46;57.31
65534;BME280;53640;55.838;37.184;2023-02-19T12:28:09;97166.72;;;-6.58;57.01
65534;BME280;53640;55.838;37.184;2023-02-19T12:42:09;97136.09;;;-6.83;55.29
65534;BME280;53640;55.838;37.184;2023-02-19T12:47:39;97117.16;;;-7.03;56.96
65534;BME280;53640;55.838;37.184;2023-02-19T12:50:21;97096.59;;;-7.16;57.21
65534;BME280;53640;55.838;37.184;2023-02-19T12:52:53;97118.31;;;-7.06;57.41
65534;BME280;53640;55.838;37.184;2023-02-19T12:55:30;97140.84;;;-6.95;57.14
65534;BME280;53640;55.838;37.184;2023-02-19T12:58:03;97098.41;;;-7.16;56.39
65534;BME280;53640;55.838;37.184;2023-02-19T13:00:38;97118.66;;;-7.01;57.05
65534;BME280;53640;55.838;37.184;2023-02-19T13:09:01;97161.91;;;-6.79;57.88
65534;BME280;53640;55.838;37.184;2023-02-19T13:11:38;97111.75;;;-7.02;57.40
65534;BME280;53640;55.838;37.184;2023-02-19T13:16:49;97002.22;;;-7.76;57.77
65534;BME280;53640;55.838;37.184;2023-02-19T13:19:17;97024.88;;;-7.75;58.21
65534;BME280;53640;55.838;37.184;2023-02-19T13:21:46;97096.09;;;-7.20;58.21
65534;BME280;53640;55.838;37.184;2023-02-19T13:24:42;97042.81;;;-7.54;57.80
65534;BME280;53640;55.838;37.184;2023-02-19T13:30:25;97147.78;;;-6.69;58.76
65534;BME280;53640;55.838;37.184;2023-02-19T13:38:09;97108.94;;;-7.00;58.14
65534;BME280;53640;55.838;37.184;2023-02-19T13:40:52;97026.25;;;-7.55;58.11
65534;BME280;53640;55.838;37.184;2023-02-19T13:43:40;97073.44;;;-7.29;58.80
65534;BME280;53640;55.838;37.184;2023-02-19T13:46:10;97120.94;;;-7.06;58.56
65534;BME280;53640;55.838;37.184;2023-02-19T13:48:40;97159.47;;;-6.72;58.63
65534;BME280;53640;55.838;37.184;2023-02-19T13:59:22;97122.94;;;-6.91;58.51
65534;BME280;53640;55.838;37.184;2023-02-19T14:04:24;97098.94;;;-7.05;58.97
65534;BME280;53640;55.838;37.184;2023-02-19T14:14:49;97138.06;;;-6.93;59.23
65534;BME280;53640;55.838;37.184;2023-02-19T14:25:28;97141.69;;;-6.94;59.74
65534;BME280;53640;55.838;37.184;2023-02-19T14:33:37;97125.38;;;-7.06;59.59
65534;BME280;53640;55.838;37.184;2023-02-19T14:38:59;97135.25;;;-7.00;59.96
65534;BME280;53640;55.838;37.184;2023-02-19T14:41:31;97122.91;;;-7.16;60.23
65534;BME280;53640;55.838;37.184;2023-02-19T14:44:06;97057.09;;;-7.49;59.98
65534;BME280;53640;55.838;37.184;2023-02-19T14:46:43;97120.94;;;-7.06;60.09
65534;BME280;53640;55.838;37.184;2023-02-19T14:49:23;97119.31;;;-7.07;59.81
65534;BME280;53640;55.838;37.184;2023-02-19T14:51:54;97082.63;;;-7.33;59.86
65534;BME280;53640;55.838;37.184;2023-02-19T14:57:13;97126.50;;;-7.17;60.11
65534;BME280;53640;55.838;37.184;2023-02-19T14:59:51;97097.22;;;-7.30;59.64
65534;BME280;53640;55.838;37.184;2023-02-19T15:02:18;97063.53;;;-7.51;59.82
65534;BME280;53640;55.838;37.184;2023-02-19T15:04:51;97104.47;;;-7.24;59.94
65534;BME280;53640;55.838;37.184;2023-02-19T15:07:44;97126.19;;;-7.14;59.98
65534;BME280;53640;55.838;37.184;2023-02-19T15:10:12;97124.19;;;-7.20;59.77
65534;BME280;53640;55.838;37.184;2023-02-19T15:12:52;97110.38;;;-7.22;59.84
65534;BME280;53640;55.838;37.184;2023-02-19T15:15:23;97119.44;;;-7.16;59.86
65534;BME280;53640;55.838;37.184;2023-02-19T15:17:51;97095.09;;;-7.35;59.62
65534;BME280;53640;55.838;37.184;2023-02-19T15:20:22;97113.31;;;-7.33;60.12
65534;BME280;53640;55.838;37.184;2023-02-19T15:22:53;97105.78;;;-7.28;60.15
65534;BME280;53640;55.838;37.184;2023-02-19T15:25:22;97112.19;;;-7.31;59.94
65534;BME280;53640;55.838;37.184;2023-02-19T15:27:50;97093.72;;;-7.55;60.06
65534;BME280;53640;55.838;37.184;2023-02-19T15:30:22;97065.13;;;-7.66;59.75
65534;BME280;53640;55.838;37.184;2023-02-19T15:32:57;97095.22;;;-7.45;60.29
65534;BME280;53640;55.838;37.184;2023-02-19T15:35:26;97117.28;;;-7.29;59.89
65534;BME280;53640;55.838;37.184;2023-02-19T15:37:53;97094.91;;;-7.41;60.16
65534;BME280;53640;55.838;37.184;2023-02-19T15:40:30;97071.03;;;-7.56;60.23
65534;BME280;53640;55.838;37.184;2023-02-19T15:42:58;97117.44;;;-7.31;60.14
65534;BME280;53640;55.838;37.184;2023-02-19T15:45:30;97040.81;;;-7.69;60.16
65534;BME280;53640;55.838;37.184;2023-02-19T15:48:08;97092.28;;;-7.33;60.06
65534;BME280;53640;55.838;37.184;2023-02-19T15:50:40;97079.13;;;-7.50;60.07
65534;BME280;53640;55.838;37.184;2023-02-19T15:53:22;97099.03;;;-7.31;60.00